Lemon Grove, California
Current Conditions -  °F | °C
As of 1:15 AM on Friday 31 Oct 2014 (Local Time) from KSEE Reporting Station
Overcast Overcast  
Wind Chill: 66°   Ceiling: 2000
Heat Index: 66°   Visibility: 10mi
Dew Point: 61°   Wind: 0mph
Humidity: 83%   Direction: NA
Pressure: 29.98"   Gusts: NA
Location:  32.74°N, 117.03°W
Report Text: KSEE 310815Z AUTO 00000KT 10SM OVC020 19/16 A2998 RMK AO2
Loading
Personal Weather Stations






























Interactive Weather Map
Tropical Storm Tracking
New forecast layout! Learn more

10-Day Weather Forecast

Advertisements
Track Severe Weather on mobile